sensor_id;sensor_type;location;lat;lon;timestamp;P1;durP1;ratioP1;P2;durP2;ratioP2
66487;SDS011;53304;54.550;18.526;2023-04-25T00:02:05;68.65;;;25.73;;
66487;SDS011;53304;54.550;18.526;2023-04-25T00:04:33;64.78;;;24.65;;
66487;SDS011;53304;54.550;18.526;2023-04-25T00:07:03;69.68;;;26.70;;
66487;SDS011;53304;54.550;18.526;2023-04-25T00:09:31;58.47;;;24.15;;
66487;SDS011;53304;54.550;18.526;2023-04-25T00:12:01;65.13;;;25.80;;
66487;SDS011;53304;54.550;18.526;2023-04-25T00:14:27;66.43;;;24.70;;
66487;SDS011;53304;54.550;18.526;2023-04-25T00:16:52;57.58;;;23.05;;
66487;SDS011;53304;54.550;18.526;2023-04-25T00:19:19;58.92;;;23.75;;
66487;SDS011;53304;54.550;18.526;2023-04-25T00:21:50;54.47;;;22.00;;
66487;SDS011;53304;54.550;18.526;2023-04-25T00:24:16;56.13;;;22.92;;
66487;SDS011;53304;54.550;18.526;2023-04-25T00:26:46;58.70;;;23.08;;
66487;SDS011;53304;54.550;18.526;2023-04-25T00:29:12;61.53;;;22.73;;
66487;SDS011;53304;54.550;18.526;2023-04-25T00:31:38;57.30;;;22.30;;
66487;SDS011;53304;54.550;18.526;2023-04-25T00:34:06;48.53;;;20.88;;
66487;SDS011;53304;54.550;18.526;2023-04-25T00:36:37;52.40;;;21.67;;
66487;SDS011;53304;54.550;18.526;2023-04-25T00:39:03;49.83;;;20.38;;
66487;SDS011;53304;54.550;18.526;2023-04-25T00:41:33;51.60;;;21.63;;
66487;SDS011;53304;54.550;18.526;2023-04-25T00:44:03;50.22;;;20.70;;
66487;SDS011;53304;54.550;18.526;2023-04-25T00:46:31;52.22;;;21.40;;
66487;SDS011;53304;54.550;18.526;2023-04-25T00:49:01;53.08;;;20.08;;
66487;SDS011;53304;54.550;18.526;2023-04-25T00:51:29;48.15;;;19.60;;
66487;SDS011;53304;54.550;18.526;2023-04-25T00:53:58;46.67;;;19.65;;
66487;SDS011;53304;54.550;18.526;2023-04-25T00:56:26;47.40;;;19.33;;
66487;SDS011;53304;54.550;18.526;2023-04-25T00:58:52;48.58;;;19.40;;
66487;SDS011;53304;54.550;18.526;2023-04-25T01:01:23;44.50;;;18.70;;
66487;SDS011;53304;54.550;18.526;2023-04-25T01:03:49;43.70;;;18.05;;
66487;SDS011;53304;54.550;18.526;2023-04-25T01:06:15;41.60;;;18.52;;
66487;SDS011;53304;54.550;18.526;2023-04-25T01:08:41;45.72;;;17.55;;
66487;SDS011;53304;54.550;18.526;2023-04-25T01:11:07;46.83;;;18.08;;
66487;SDS011;53304;54.550;18.526;2023-04-25T01:13:35;42.70;;;17.55;;
66487;SDS011;53304;54.550;18.526;2023-04-25T01:16:01;38.70;;;17.33;;
66487;SDS011;53304;54.550;18.526;2023-04-25T01:18:29;42.83;;;17.77;;
66487;SDS011;53304;54.550;18.526;2023-04-25T01:23:29;41.22;;;16.10;;
66487;SDS011;53304;54.550;18.526;2023-04-25T01:25:55;42.13;;;16.65;;
66487;SDS011;53304;54.550;18.526;2023-04-25T01:28:20;40.42;;;16.83;;
66487;SDS011;53304;54.550;18.526;2023-04-25T01:30:52;42.22;;;16.55;;
66487;SDS011;53304;54.550;18.526;2023-04-25T01:33:20;38.30;;;15.55;;
66487;SDS011;53304;54.550;18.526;2023-04-25T01:35:46;37.08;;;16.38;;
66487;SDS011;53304;54.550;18.526;2023-04-25T01:38:13;39.65;;;15.93;;
66487;SDS011;53304;54.550;18.526;2023-04-25T01:40:39;37.25;;;15.52;;
66487;SDS011;53304;54.550;18.526;2023-04-25T01:43:05;37.42;;;14.73;;
66487;SDS011;53304;54.550;18.526;2023-04-25T01:45:36;35.53;;;15.20;;
66487;SDS011;53304;54.550;18.526;2023-04-25T01:48:06;38.00;;;14.95;;
66487;SDS011;53304;54.550;18.526;2023-04-25T01:50:34;44.22;;;15.60;;
66487;SDS011;53304;54.550;18.526;2023-04-25T01:53:02;33.28;;;13.27;;
66487;SDS011;53304;54.550;18.526;2023-04-25T01:55:29;34.20;;;13.85;;
66487;SDS011;53304;54.550;18.526;2023-04-25T01:57:57;35.28;;;14.23;;
66487;SDS011;53304;54.550;18.526;2023-04-25T02:00:22;33.85;;;14.15;;
66487;SDS011;53304;54.550;18.526;2023-04-25T02:02:50;34.95;;;14.43;;
66487;SDS011;53304;54.550;18.526;2023-04-25T02:05:18;33.00;;;13.95;;
66487;SDS011;53304;54.550;18.526;2023-04-25T02:07:46;33.85;;;13.63;;
66487;SDS011;53304;54.550;18.526;2023-04-25T02:10:17;25.80;;;12.63;;
66487;SDS011;53304;54.550;18.526;2023-04-25T02:12:42;32.22;;;12.57;;
66487;SDS011;53304;54.550;18.526;2023-04-25T02:15:12;26.67;;;12.02;;
66487;SDS011;53304;54.550;18.526;2023-04-25T02:17:43;31.98;;;13.70;;
66487;SDS011;53304;54.550;18.526;2023-04-25T02:20:10;31.70;;;12.38;;
66487;SDS011;53304;54.550;18.526;2023-04-25T02:22:38;31.98;;;12.60;;
66487;SDS011;53304;54.550;18.526;2023-04-25T02:25:04;27.75;;;12.10;;
66487;SDS011;53304;54.550;18.526;2023-04-25T02:27:30;29.08;;;11.95;;
66487;SDS011;53304;54.550;18.526;2023-04-25T02:30:01;27.67;;;12.43;;
66487;SDS011;53304;54.550;18.526;2023-04-25T02:32:26;29.48;;;11.85;;
66487;SDS011;53304;54.550;18.526;2023-04-25T02:34:52;23.70;;;11.10;;
66487;SDS011;53304;54.550;18.526;2023-04-25T02:37:17;28.85;;;12.52;;
66487;SDS011;53304;54.550;18.526;2023-04-25T02:39:47;29.77;;;11.80;;
66487;SDS011;53304;54.550;18.526;2023-04-25T02:42:15;28.67;;;10.98;;
66487;SDS011;53304;54.550;18.526;2023-04-25T02:44:43;27.75;;;11.18;;
66487;SDS011;53304;54.550;18.526;2023-04-25T02:47:11;27.63;;;11.43;;
66487;SDS011;53304;54.550;18.526;2023-04-25T02:49:41;26.35;;;10.52;;
66487;SDS011;53304;54.550;18.526;2023-04-25T02:52:08;26.38;;;10.82;;
66487;SDS011;53304;54.550;18.526;2023-04-25T02:54:34;24.75;;;10.95;;
66487;SDS011;53304;54.550;18.526;2023-04-25T02:57:01;26.42;;;11.27;;
66487;SDS011;53304;54.550;18.526;2023-04-25T02:59:27;23.55;;;10.23;;
66487;SDS011;53304;54.550;18.526;2023-04-25T03:01:53;25.13;;;10.88;;
66487;SDS011;53304;54.550;18.526;2023-04-25T03:04:18;21.92;;;10.15;;
66487;SDS011;53304;54.550;18.526;2023-04-25T03:06:46;20.42;;;9.07;;
66487;SDS011;53304;54.550;18.526;2023-04-25T03:09:17;24.17;;;9.77;;
66487;SDS011;53304;54.550;18.526;2023-04-25T03:11:43;22.85;;;9.68;;
66487;SDS011;53304;54.550;18.526;2023-04-25T03:14:09;20.55;;;10.02;;
66487;SDS011;53304;54.550;18.526;2023-04-25T03:16:35;22.67;;;9.45;;
66487;SDS011;53304;54.550;18.526;2023-04-25T03:19:00;19.95;;;9.30;;
66487;SDS011;53304;54.550;18.526;2023-04-25T03:21:28;22.00;;;9.55;;
66487;SDS011;53304;54.550;18.526;2023-04-25T03:23:54;22.98;;;9.93;;
66487;SDS011;53304;54.550;18.526;2023-04-25T03:26:20;21.98;;;8.82;;
66487;SDS011;53304;54.550;18.526;2023-04-25T03:28:45;20.00;;;8.63;;
66487;SDS011;53304;54.550;18.526;2023-04-25T03:31:13;24.73;;;8.70;;
66487;SDS011;53304;54.550;18.526;2023-04-25T03:33:41;20.63;;;8.50;;
66487;SDS011;53304;54.550;18.526;2023-04-25T03:36:06;19.13;;;7.95;;
66487;SDS011;53304;54.550;18.526;2023-04-25T03:38:32;20.90;;;7.90;;
66487;SDS011;53304;54.550;18.526;2023-04-25T03:40:58;19.45;;;8.60;;
66487;SDS011;53304;54.550;18.526;2023-04-25T03:43:25;21.75;;;8.25;;
66487;SDS011;53304;54.550;18.526;2023-04-25T03:45:53;19.30;;;8.48;;
66487;SDS011;53304;54.550;18.526;2023-04-25T03:48:21;20.50;;;8.48;;
66487;SDS011;53304;54.550;18.526;2023-04-25T03:50:53;16.20;;;7.68;;
66487;SDS011;53304;54.550;18.526;2023-04-25T03:53:19;16.65;;;7.63;;
66487;SDS011;53304;54.550;18.526;2023-04-25T03:55:44;20.02;;;8.18;;
66487;SDS011;53304;54.550;18.526;2023-04-25T03:58:14;16.33;;;7.53;;
66487;SDS011;53304;54.550;18.526;2023-04-25T04:00:40;18.05;;;7.72;;
66487;SDS011;53304;54.550;18.526;2023-04-25T04:03:07;17.73;;;7.70;;
66487;SDS011;53304;54.550;18.526;2023-04-25T04:05:33;16.42;;;7.88;;
66487;SDS011;53304;54.550;18.526;2023-04-25T04:07:58;16.70;;;7.18;;
66487;SDS011;53304;54.550;18.526;2023-04-25T04:10:26;18.23;;;7.65;;
66487;SDS011;53304;54.550;18.526;2023-04-25T04:12:51;16.50;;;7.60;;
66487;SDS011;53304;54.550;18.526;2023-04-25T04:15:17;15.80;;;7.05;;
66487;SDS011;53304;54.550;18.526;2023-04-25T04:17:44;15.68;;;6.78;;
66487;SDS011;53304;54.550;18.526;2023-04-25T04:20:15;14.73;;;6.57;;
66487;SDS011;53304;54.550;18.526;2023-04-25T04:22:40;14.70;;;6.53;;
66487;SDS011;53304;54.550;18.526;2023-04-25T04:25:08;15.73;;;6.38;;
66487;SDS011;53304;54.550;18.526;2023-04-25T04:27:37;14.23;;;6.57;;
66487;SDS011;53304;54.550;18.526;2023-04-25T04:30:05;18.27;;;7.03;;
66487;SDS011;53304;54.550;18.526;2023-04-25T04:32:34;14.60;;;6.65;;
66487;SDS011;53304;54.550;18.526;2023-04-25T04:35:03;16.13;;;6.55;;
66487;SDS011;53304;54.550;18.526;2023-04-25T04:37:31;16.15;;;6.05;;
66487;SDS011;53304;54.550;18.526;2023-04-25T04:40:00;13.27;;;6.13;;
66487;SDS011;53304;54.550;18.526;2023-04-25T04:44:55;15.55;;;6.15;;
66487;SDS011;53304;54.550;18.526;2023-04-25T04:47:23;15.65;;;6.38;;
66487;SDS011;53304;54.550;18.526;2023-04-25T04:49:49;14.85;;;6.18;;
66487;SDS011;53304;54.550;18.526;2023-04-25T04:52:17;13.48;;;6.15;;
66487;SDS011;53304;54.550;18.526;2023-04-25T04:54:42;13.50;;;5.43;;
66487;SDS011;53304;54.550;18.526;2023-04-25T04:57:10;12.88;;;5.22;;
66487;SDS011;53304;54.550;18.526;2023-04-25T04:59:36;13.68;;;5.75;;
66487;SDS011;53304;54.550;18.526;2023-04-25T05:02:01;12.50;;;5.78;;
66487;SDS011;53304;54.550;18.526;2023-04-25T05:04:29;12.63;;;5.30;;
66487;SDS011;53304;54.550;18.526;2023-04-25T05:06:57;15.73;;;6.10;;
66487;SDS011;53304;54.550;18.526;2023-04-25T05:09:22;15.73;;;6.00;;
66487;SDS011;53304;54.550;18.526;2023-04-25T05:11:50;14.10;;;5.88;;
66487;SDS011;53304;54.550;18.526;2023-04-25T05:14:16;14.23;;;5.60;;
66487;SDS011;53304;54.550;18.526;2023-04-25T05:16:42;12.93;;;4.93;;
66487;SDS011;53304;54.550;18.526;2023-04-25T05:19:11;13.80;;;4.85;;
66487;SDS011;53304;54.550;18.526;2023-04-25T05:21:36;13.65;;;5.10;;
66487;SDS011;53304;54.550;18.526;2023-04-25T05:24:04;12.07;;;5.13;;
66487;SDS011;53304;54.550;18.526;2023-04-25T05:26:34;12.65;;;4.90;;
66487;SDS011;53304;54.550;18.526;2023-04-25T05:29:02;10.25;;;4.95;;
66487;SDS011;53304;54.550;18.526;2023-04-25T05:31:28;12.85;;;4.93;;
66487;SDS011;53304;54.550;18.526;2023-04-25T05:33:53;13.10;;;4.90;;
66487;SDS011;53304;54.550;18.526;2023-04-25T05:36:23;12.32;;;4.88;;
66487;SDS011;53304;54.550;18.526;2023-04-25T05:38:48;20.23;;;5.90;;
66487;SDS011;53304;54.550;18.526;2023-04-25T05:41:16;22.40;;;5.18;;
66487;SDS011;53304;54.550;18.526;2023-04-25T05:43:44;25.20;;;6.35;;
66487;SDS011;53304;54.550;18.526;2023-04-25T05:46:14;15.40;;;5.28;;
66487;SDS011;53304;54.550;18.526;2023-04-25T05:48:41;19.00;;;5.03;;
66487;SDS011;53304;54.550;18.526;2023-04-25T05:51:09;15.70;;;4.90;;
66487;SDS011;53304;54.550;18.526;2023-04-25T05:53:35;26.23;;;6.07;;
66487;SDS011;53304;54.550;18.526;2023-04-25T05:56:00;20.40;;;5.50;;
66487;SDS011;53304;54.550;18.526;2023-04-25T05:58:31;18.05;;;4.47;;
66487;SDS011;53304;54.550;18.526;2023-04-25T06:00:56;19.70;;;4.65;;
66487;SDS011;53304;54.550;18.526;2023-04-25T06:03:24;15.50;;;4.43;;
66487;SDS011;53304;54.550;18.526;2023-04-25T06:05:49;12.93;;;4.47;;
66487;SDS011;53304;54.550;18.526;2023-04-25T06:08:15;14.57;;;4.15;;
66487;SDS011;53304;54.550;18.526;2023-04-25T06:10:40;12.45;;;3.92;;
66487;SDS011;53304;54.550;18.526;2023-04-25T06:13:06;13.18;;;4.63;;
66487;SDS011;53304;54.550;18.526;2023-04-25T06:15:36;13.02;;;3.85;;
66487;SDS011;53304;54.550;18.526;2023-04-25T06:18:06;9.57;;;3.50;;
66487;SDS011;53304;54.550;18.526;2023-04-25T06:20:34;9.60;;;3.75;;
66487;SDS011;53304;54.550;18.526;2023-04-25T06:23:00;10.75;;;3.42;;
66487;SDS011;53304;54.550;18.526;2023-04-25T06:25:25;13.65;;;3.80;;
66487;SDS011;53304;54.550;18.526;2023-04-25T06:27:50;9.15;;;3.28;;
66487;SDS011;53304;54.550;18.526;2023-04-25T06:30:16;10.57;;;3.50;;
66487;SDS011;53304;54.550;18.526;2023-04-25T06:32:49;8.48;;;3.47;;
66487;SDS011;53304;54.550;18.526;2023-04-25T06:35:15;7.60;;;3.40;;
66487;SDS011;53304;54.550;18.526;2023-04-25T06:37:40;10.32;;;3.20;;
66487;SDS011;53304;54.550;18.526;2023-04-25T06:40:06;7.78;;;3.20;;
66487;SDS011;53304;54.550;18.526;2023-04-25T06:42:34;8.38;;;3.33;;
66487;SDS011;53304;54.550;18.526;2023-04-25T06:45:02;11.35;;;3.53;;
66487;SDS011;53304;54.550;18.526;2023-04-25T06:47:33;9.13;;;3.20;;
66487;SDS011;53304;54.550;18.526;2023-04-25T06:50:04;8.23;;;3.08;;
66487;SDS011;53304;54.550;18.526;2023-04-25T06:52:32;7.63;;;3.20;;
66487;SDS011;53304;54.550;18.526;2023-04-25T06:54:57;10.60;;;3.53;;
66487;SDS011;53304;54.550;18.526;2023-04-25T06:57:25;7.85;;;2.78;;
66487;SDS011;53304;54.550;18.526;2023-04-25T06:59:51;9.40;;;3.30;;
66487;SDS011;53304;54.550;18.526;2023-04-25T07:02:18;9.55;;;3.10;;
66487;SDS011;53304;54.550;18.526;2023-04-25T07:04:46;8.27;;;3.05;;
66487;SDS011;53304;54.550;18.526;2023-04-25T07:07:12;6.45;;;2.90;;
66487;SDS011;53304;54.550;18.526;2023-04-25T07:09:37;7.57;;;3.10;;
66487;SDS011;53304;54.550;18.526;2023-04-25T07:12:03;11.05;;;3.10;;
66487;SDS011;53304;54.550;18.526;2023-04-25T07:14:31;8.50;;;2.90;;
66487;SDS011;53304;54.550;18.526;2023-04-25T07:16:56;8.60;;;3.05;;
66487;SDS011;53304;54.550;18.526;2023-04-25T07:19:24;6.00;;;2.70;;
66487;SDS011;53304;54.550;18.526;2023-04-25T07:21:54;6.78;;;2.85;;
66487;SDS011;53304;54.550;18.526;2023-04-25T07:24:19;10.48;;;2.63;;
66487;SDS011;53304;54.550;18.526;2023-04-25T07:26:44;5.93;;;2.58;;
66487;SDS011;53304;54.550;18.526;2023-04-25T07:29:13;7.32;;;2.50;;
66487;SDS011;53304;54.550;18.526;2023-04-25T07:31:40;6.45;;;2.78;;
66487;SDS011;53304;54.550;18.526;2023-04-25T07:34:06;7.93;;;2.75;;
66487;SDS011;53304;54.550;18.526;2023-04-25T07:36:32;6.35;;;2.38;;
66487;SDS011;53304;54.550;18.526;2023-04-25T07:38:57;6.30;;;2.42;;
66487;SDS011;53304;54.550;18.526;2023-04-25T07:41:22;6.85;;;2.70;;
66487;SDS011;53304;54.550;18.526;2023-04-25T07:43:48;6.47;;;3.00;;
66487;SDS011;53304;54.550;18.526;2023-04-25T07:46:13;5.90;;;2.63;;
66487;SDS011;53304;54.550;18.526;2023-04-25T07:48:41;6.03;;;2.92;;
66487;SDS011;53304;54.550;18.526;2023-04-25T07:51:06;5.03;;;2.45;;
66487;SDS011;53304;54.550;18.526;2023-04-25T07:53:32;5.32;;;2.25;;
66487;SDS011;53304;54.550;18.526;2023-04-25T07:55:59;9.98;;;3.00;;
66487;SDS011;53304;54.550;18.526;2023-04-25T07:58:25;7.70;;;3.13;;
66487;SDS011;53304;54.550;18.526;2023-04-25T08:00:50;8.93;;;2.65;;
66487;SDS011;53304;54.550;18.526;2023-04-25T08:03:23;9.73;;;2.60;;
66487;SDS011;53304;54.550;18.526;2023-04-25T08:05:48;8.85;;;2.95;;
66487;SDS011;53304;54.550;18.526;2023-04-25T08:08:16;9.65;;;2.40;;
66487;SDS011;53304;54.550;18.526;2023-04-25T08:10:47;9.68;;;2.70;;
66487;SDS011;53304;54.550;18.526;2023-04-25T08:13:15;7.65;;;2.30;;
66487;SDS011;53304;54.550;18.526;2023-04-25T08:15:45;6.55;;;2.60;;
66487;SDS011;53304;54.550;18.526;2023-04-25T08:18:13;6.93;;;2.40;;
66487;SDS011;53304;54.550;18.526;2023-04-25T08:20:39;7.00;;;2.20;;
66487;SDS011;53304;54.550;18.526;2023-04-25T08:23:06;6.18;;;2.28;;
66487;SDS011;53304;54.550;18.526;2023-04-25T08:25:35;9.30;;;2.40;;
66487;SDS011;53304;54.550;18.526;2023-04-25T08:28:01;10.32;;;2.45;;
66487;SDS011;53304;54.550;18.526;2023-04-25T08:30:31;4.97;;;2.20;;
66487;SDS011;53304;54.550;18.526;2023-04-25T08:32:57;6.88;;;2.22;;
66487;SDS011;53304;54.550;18.526;2023-04-25T08:35:25;5.43;;;2.35;;
66487;SDS011;53304;54.550;18.526;2023-04-25T08:37:53;7.95;;;2.10;;
66487;SDS011;53304;54.550;18.526;2023-04-25T08:40:22;4.57;;;2.15;;
66487;SDS011;53304;54.550;18.526;2023-04-25T08:42:53;5.25;;;1.98;;
66487;SDS011;53304;54.550;18.526;2023-04-25T08:45:19;5.15;;;2.35;;
66487;SDS011;53304;54.550;18.526;2023-04-25T08:47:45;4.85;;;1.95;;
66487;SDS011;53304;54.550;18.526;2023-04-25T08:50:13;4.55;;;2.10;;
66487;SDS011;53304;54.550;18.526;2023-04-25T08:52:44;4.15;;;1.77;;
66487;SDS011;53304;54.550;18.526;2023-04-25T08:55:13;5.73;;;2.27;;
66487;SDS011;53304;54.550;18.526;2023-04-25T08:57:41;4.55;;;2.05;;
66487;SDS011;53304;54.550;18.526;2023-04-25T09:00:08;4.88;;;1.95;;
66487;SDS011;53304;54.550;18.526;2023-04-25T09:02:35;5.57;;;2.17;;
66487;SDS011;53304;54.550;18.526;2023-04-25T09:05:03;5.65;;;2.40;;
66487;SDS011;53304;54.550;18.526;2023-04-25T09:07:31;8.65;;;2.00;;
66487;SDS011;53304;54.550;18.526;2023-04-25T09:09:59;4.07;;;1.95;;
66487;SDS011;53304;54.550;18.526;2023-04-25T09:12:29;4.32;;;1.60;;
66487;SDS011;53304;54.550;18.526;2023-04-25T09:15:08;4.68;;;1.95;;
66487;SDS011;53304;54.550;18.526;2023-04-25T09:17:38;5.57;;;1.83;;
66487;SDS011;53304;54.550;18.526;2023-04-25T09:20:10;5.82;;;1.90;;
66487;SDS011;53304;54.550;18.526;2023-04-25T09:22:45;4.60;;;1.90;;
66487;SDS011;53304;54.550;18.526;2023-04-25T09:25:11;5.15;;;2.05;;
66487;SDS011;53304;54.550;18.526;2023-04-25T09:27:48;4.78;;;1.80;;
66487;SDS011;53304;54.550;18.526;2023-04-25T09:30:17;6.28;;;2.10;;
66487;SDS011;53304;54.550;18.526;2023-04-25T09:32:43;3.90;;;2.13;;
66487;SDS011;53304;54.550;18.526;2023-04-25T09:35:23;5.20;;;1.85;;
66487;SDS011;53304;54.550;18.526;2023-04-25T09:37:50;4.10;;;1.75;;
66487;SDS011;53304;54.550;18.526;2023-04-25T09:40:15;4.75;;;2.00;;
66487;SDS011;53304;54.550;18.526;2023-04-25T09:42:48;3.17;;;1.70;;
66487;SDS011;53304;54.550;18.526;2023-04-25T09:45:13;3.00;;;1.65;;
66487;SDS011;53304;54.550;18.526;2023-04-25T09:47:40;4.18;;;1.65;;
66487;SDS011;53304;54.550;18.526;2023-04-25T09:50:13;3.55;;;1.58;;
66487;SDS011;53304;54.550;18.526;2023-04-25T09:52:42;3.67;;;1.80;;
66487;SDS011;53304;54.550;18.526;2023-04-25T09:55:08;3.47;;;1.73;;
66487;SDS011;53304;54.550;18.526;2023-04-25T09:57:33;4.80;;;1.67;;
66487;SDS011;53304;54.550;18.526;2023-04-25T10:00:03;3.38;;;1.88;;
66487;SDS011;53304;54.550;18.526;2023-04-25T10:02:38;4.50;;;1.85;;
66487;SDS011;53304;54.550;18.526;2023-04-25T10:05:07;4.17;;;1.60;;
66487;SDS011;53304;54.550;18.526;2023-04-25T10:07:33;4.28;;;1.60;;
66487;SDS011;53304;54.550;18.526;2023-04-25T10:10:00;11.75;;;1.92;;
66487;SDS011;53304;54.550;18.526;2023-04-25T10:12:27;12.00;;;2.38;;
66487;SDS011;53304;54.550;18.526;2023-04-25T10:14:56;9.07;;;2.00;;
66487;SDS011;53304;54.550;18.526;2023-04-25T10:17:26;4.63;;;1.90;;
66487;SDS011;53304;54.550;18.526;2023-04-25T10:19:52;4.05;;;1.80;;
66487;SDS011;53304;54.550;18.526;2023-04-25T10:25:00;4.35;;;2.00;;
66487;SDS011;53304;54.550;18.526;2023-04-25T10:27:28;5.32;;;1.75;;
66487;SDS011;53304;54.550;18.526;2023-04-25T10:30:00;9.25;;;2.00;;
66487;SDS011;53304;54.550;18.526;2023-04-25T10:32:30;4.70;;;1.67;;
66487;SDS011;53304;54.550;18.526;2023-04-25T10:35:02;5.60;;;1.83;;
66487;SDS011;53304;54.550;18.526;2023-04-25T10:37:57;4.38;;;1.60;;
66487;SDS011;53304;54.550;18.526;2023-04-25T10:40:23;4.55;;;1.50;;
66487;SDS011;53304;54.550;18.526;2023-04-25T10:42:49;4.70;;;1.75;;
66487;SDS011;53304;54.550;18.526;2023-04-25T10:45:14;4.28;;;1.70;;
66487;SDS011;53304;54.550;18.526;2023-04-25T10:47:47;3.72;;;1.65;;
66487;SDS011;53304;54.550;18.526;2023-04-25T10:50:16;3.72;;;1.85;;
66487;SDS011;53304;54.550;18.526;2023-04-25T10:52:44;3.78;;;1.50;;
66487;SDS011;53304;54.550;18.526;2023-04-25T10:55:12;3.65;;;1.55;;
66487;SDS011;53304;54.550;18.526;2023-04-25T10:57:44;3.83;;;1.70;;
66487;SDS011;53304;54.550;18.526;2023-04-25T11:02:52;3.65;;;1.58;;
66487;SDS011;53304;54.550;18.526;2023-04-25T11:07:51;3.80;;;1.50;;
66487;SDS011;53304;54.550;18.526;2023-04-25T11:10:19;3.55;;;1.55;;
66487;SDS011;53304;54.550;18.526;2023-04-25T11:12:47;3.63;;;1.52;;
66487;SDS011;53304;54.550;18.526;2023-04-25T11:15:12;3.38;;;1.60;;
66487;SDS011;53304;54.550;18.526;2023-04-25T11:17:40;3.35;;;1.48;;
66487;SDS011;53304;54.550;18.526;2023-04-25T11:20:07;3.05;;;1.60;;
66487;SDS011;53304;54.550;18.526;2023-04-25T11:22:37;2.97;;;1.40;;
66487;SDS011;53304;54.550;18.526;2023-04-25T11:25:06;4.85;;;1.60;;
66487;SDS011;53304;54.550;18.526;2023-04-25T11:27:32;5.43;;;1.92;;
66487;SDS011;53304;54.550;18.526;2023-04-25T11:30:09;3.13;;;1.45;;
66487;SDS011;53304;54.550;18.526;2023-04-25T11:32:39;4.72;;;1.70;;
66487;SDS011;53304;54.550;18.526;2023-04-25T11:35:05;3.92;;;1.70;;
66487;SDS011;53304;54.550;18.526;2023-04-25T11:37:32;4.68;;;1.55;;
66487;SDS011;53304;54.550;18.526;2023-04-25T11:39:59;2.78;;;1.40;;
66487;SDS011;53304;54.550;18.526;2023-04-25T11:42:27;5.70;;;1.48;;
66487;SDS011;53304;54.550;18.526;2023-04-25T11:44:55;2.80;;;1.40;;
66487;SDS011;53304;54.550;18.526;2023-04-25T11:47:26;4.18;;;1.77;;
66487;SDS011;53304;54.550;18.526;2023-04-25T11:49:56;3.67;;;1.70;;
66487;SDS011;53304;54.550;18.526;2023-04-25T11:52:23;3.05;;;1.60;;
66487;SDS011;53304;54.550;18.526;2023-04-25T11:54:48;4.50;;;1.48;;
66487;SDS011;53304;54.550;18.526;2023-04-25T11:57:13;3.60;;;1.50;;
66487;SDS011;53304;54.550;18.526;2023-04-25T11:59:39;3.67;;;1.30;;
66487;SDS011;53304;54.550;18.526;2023-04-25T12:02:07;2.97;;;1.40;;
66487;SDS011;53304;54.550;18.526;2023-04-25T12:04:35;3.17;;;1.55;;
66487;SDS011;53304;54.550;18.526;2023-04-25T12:07:03;2.85;;;1.40;;
66487;SDS011;53304;54.550;18.526;2023-04-25T12:09:33;4.00;;;1.60;;
66487;SDS011;53304;54.550;18.526;2023-04-25T12:11:59;3.53;;;1.65;;
66487;SDS011;53304;54.550;18.526;2023-04-25T12:14:28;2.53;;;1.52;;
66487;SDS011;53304;54.550;18.526;2023-04-25T12:16:58;3.55;;;1.60;;
66487;SDS011;53304;54.550;18.526;2023-04-25T12:19:26;3.35;;;1.42;;
66487;SDS011;53304;54.550;18.526;2023-04-25T12:21:54;3.50;;;1.60;;
66487;SDS011;53304;54.550;18.526;2023-04-25T12:24:23;3.17;;;1.52;;
66487;SDS011;53304;54.550;18.526;2023-04-25T12:27:00;3.42;;;1.33;;
66487;SDS011;53304;54.550;18.526;2023-04-25T12:29:28;2.15;;;1.30;;
66487;SDS011;53304;54.550;18.526;2023-04-25T12:31:57;3.72;;;1.38;;
66487;SDS011;53304;54.550;18.526;2023-04-25T12:34:23;2.55;;;1.50;;
66487;SDS011;53304;54.550;18.526;2023-04-25T12:36:49;2.92;;;1.35;;
66487;SDS011;53304;54.550;18.526;2023-04-25T12:39:18;3.95;;;1.48;;
66487;SDS011;53304;54.550;18.526;2023-04-25T12:41:45;2.15;;;1.30;;
66487;SDS011;53304;54.550;18.526;2023-04-25T12:44:11;2.83;;;1.50;;
66487;SDS011;53304;54.550;18.526;2023-04-25T12:46:37;2.92;;;1.40;;
66487;SDS011;53304;54.550;18.526;2023-04-25T12:49:06;3.50;;;1.42;;
66487;SDS011;53304;54.550;18.526;2023-04-25T12:51:36;2.53;;;1.58;;
66487;SDS011;53304;54.550;18.526;2023-04-25T12:54:02;3.80;;;1.55;;
66487;SDS011;53304;54.550;18.526;2023-04-25T12:56:32;2.75;;;1.60;;
66487;SDS011;53304;54.550;18.526;2023-04-25T12:58:57;2.67;;;1.35;;
66487;SDS011;53304;54.550;18.526;2023-04-25T13:01:25;3.67;;;1.50;;
66487;SDS011;53304;54.550;18.526;2023-04-25T13:03:51;3.67;;;1.40;;
66487;SDS011;53304;54.550;18.526;2023-04-25T13:06:17;3.45;;;1.50;;
66487;SDS011;53304;54.550;18.526;2023-04-25T13:08:48;3.65;;;1.40;;
66487;SDS011;53304;54.550;18.526;2023-04-25T13:11:16;2.75;;;1.40;;
66487;SDS011;53304;54.550;18.526;2023-04-25T13:13:41;2.15;;;1.50;;
66487;SDS011;53304;54.550;18.526;2023-04-25T13:16:10;2.08;;;1.35;;
66487;SDS011;53304;54.550;18.526;2023-04-25T13:18:38;2.50;;;1.42;;
66487;SDS011;53304;54.550;18.526;2023-04-25T13:21:04;2.95;;;1.70;;
66487;SDS011;53304;54.550;18.526;2023-04-25T13:23:29;4.15;;;1.60;;
66487;SDS011;53304;54.550;18.526;2023-04-25T13:25:59;3.67;;;1.70;;
66487;SDS011;53304;54.550;18.526;2023-04-25T13:28:26;3.53;;;1.70;;
66487;SDS011;53304;54.550;18.526;2023-04-25T13:30:54;3.53;;;1.83;;
66487;SDS011;53304;54.550;18.526;2023-04-25T13:33:20;2.70;;;1.60;;
66487;SDS011;53304;54.550;18.526;2023-04-25T13:35:46;3.25;;;1.90;;
66487;SDS011;53304;54.550;18.526;2023-04-25T13:38:19;2.53;;;1.60;;
66487;SDS011;53304;54.550;18.526;2023-04-25T13:40:47;3.08;;;1.60;;
66487;SDS011;53304;54.550;18.526;2023-04-25T13:43:17;3.10;;;1.50;;
66487;SDS011;53304;54.550;18.526;2023-04-25T13:45:45;2.42;;;1.48;;
66487;SDS011;53304;54.550;18.526;2023-04-25T13:48:13;3.58;;;1.70;;
66487;SDS011;53304;54.550;18.526;2023-04-25T13:50:39;3.20;;;1.77;;
66487;SDS011;53304;54.550;18.526;2023-04-25T13:53:07;3.58;;;1.45;;
66487;SDS011;53304;54.550;18.526;2023-04-25T13:55:37;2.20;;;1.40;;
66487;SDS011;53304;54.550;18.526;2023-04-25T13:58:08;2.58;;;1.65;;
66487;SDS011;53304;54.550;18.526;2023-04-25T14:00:37;4.03;;;1.55;;
66487;SDS011;53304;54.550;18.526;2023-04-25T14:03:08;5.38;;;1.67;;
66487;SDS011;53304;54.550;18.526;2023-04-25T14:05:36;3.22;;;1.30;;
66487;SDS011;53304;54.550;18.526;2023-04-25T14:08:03;3.25;;;1.52;;
66487;SDS011;53304;54.550;18.526;2023-04-25T14:10:29;4.88;;;1.50;;
66487;SDS011;53304;54.550;18.526;2023-04-25T14:12:55;3.70;;;1.42;;
66487;SDS011;53304;54.550;18.526;2023-04-25T14:15:20;3.15;;;1.50;;
66487;SDS011;53304;54.550;18.526;2023-04-25T14:17:46;2.08;;;1.20;;
66487;SDS011;53304;54.550;18.526;2023-04-25T14:20:13;3.75;;;1.40;;
66487;SDS011;53304;54.550;18.526;2023-04-25T14:22:45;3.00;;;1.35;;
66487;SDS011;53304;54.550;18.526;2023-04-25T14:25:13;2.90;;;1.17;;
66487;SDS011;53304;54.550;18.526;2023-04-25T14:27:39;2.28;;;1.40;;
66487;SDS011;53304;54.550;18.526;2023-04-25T14:30:07;2.65;;;1.40;;
66487;SDS011;53304;54.550;18.526;2023-04-25T14:32:37;3.38;;;1.67;;
66487;SDS011;53304;54.550;18.526;2023-04-25T14:35:05;3.50;;;1.33;;
66487;SDS011;53304;54.550;18.526;2023-04-25T14:37:34;4.68;;;1.38;;
66487;SDS011;53304;54.550;18.526;2023-04-25T14:40:00;1.98;;;1.40;;
66487;SDS011;53304;54.550;18.526;2023-04-25T14:42:25;2.28;;;1.35;;